sensor_id;sensor_type;location;lat;lon;timestamp;P1;durP1;ratioP1;P2;durP2;ratioP2
78916;SDS011;68315;48.608;11.436;2023-03-01T13:04:35;4.28;;;3.88;;
78916;SDS011;68315;48.608;11.436;2023-03-01T13:21:13;17.23;;;15.38;;
78916;SDS011;68315;48.608;11.436;2023-03-01T13:23:55;18.15;;;15.18;;
78916;SDS011;68315;48.608;11.436;2023-03-01T13:26:20;17.90;;;15.55;;
78916;SDS011;68315;48.608;11.436;2023-03-01T13:33:43;18.33;;;15.55;;
78916;SDS011;68315;48.608;11.436;2023-03-01T13:36:45;19.65;;;16.20;;
78916;SDS011;68315;48.608;11.436;2023-03-01T13:39:44;19.50;;;16.10;;
78916;SDS011;68315;48.608;11.436;2023-03-01T13:41:52;20.70;;;15.82;;
78916;SDS011;68315;48.608;11.436;2023-03-01T13:46:45;19.98;;;16.30;;
78916;SDS011;68315;48.608;11.436;2023-03-01T13:49:18;21.35;;;16.50;;
78916;SDS011;68315;48.608;11.436;2023-03-01T13:51:46;20.95;;;16.38;;
78916;SDS011;68315;48.608;11.436;2023-03-01T13:54:13;20.63;;;16.00;;
78916;SDS011;68315;48.608;11.436;2023-03-01T13:56:40;20.17;;;16.13;;
78916;SDS011;68315;48.608;11.436;2023-03-01T13:59:06;19.60;;;16.02;;
78916;SDS011;68315;48.608;11.436;2023-03-01T14:01:40;21.98;;;15.80;;
78916;SDS011;68315;48.608;11.436;2023-03-01T14:04:18;20.88;;;16.05;;
78916;SDS011;68315;48.608;11.436;2023-03-01T14:06:46;17.88;;;14.68;;
78916;SDS011;68315;48.608;11.436;2023-03-01T14:09:15;19.27;;;15.23;;
78916;SDS011;68315;48.608;11.436;2023-03-01T14:11:50;19.77;;;15.30;;
78916;SDS011;68315;48.608;11.436;2023-03-01T14:17:07;19.60;;;15.23;;
78916;SDS011;68315;48.608;11.436;2023-03-01T14:19:38;21.50;;;15.30;;
78916;SDS011;68315;48.608;11.436;2023-03-01T14:22:20;17.77;;;14.93;;
78916;SDS011;68315;48.608;11.436;2023-03-01T14:24:49;19.40;;;14.98;;
78916;SDS011;68315;48.608;11.436;2023-03-01T14:27:16;19.27;;;15.00;;
78916;SDS011;68315;48.608;11.436;2023-03-01T14:29:42;17.15;;;13.90;;
78916;SDS011;68315;48.608;11.436;2023-03-01T14:32:12;18.75;;;15.23;;
78916;SDS011;68315;48.608;11.436;2023-03-01T14:34:44;18.67;;;15.27;;
78916;SDS011;68315;48.608;11.436;2023-03-01T14:37:16;18.42;;;15.10;;
78916;SDS011;68315;48.608;11.436;2023-03-01T14:39:45;21.08;;;15.50;;
78916;SDS011;68315;48.608;11.436;2023-03-01T14:42:12;18.90;;;15.07;;
78916;SDS011;68315;48.608;11.436;2023-03-01T14:44:40;17.65;;;14.35;;
78916;SDS011;68315;48.608;11.436;2023-03-01T14:47:10;18.48;;;14.55;;
78916;SDS011;68315;48.608;11.436;2023-03-01T14:49:38;17.88;;;14.23;;
78916;SDS011;68315;48.608;11.436;2023-03-01T14:52:06;19.20;;;14.88;;
78916;SDS011;68315;48.608;11.436;2023-03-01T14:54:42;18.05;;;14.20;;
78916;SDS011;68315;48.608;11.436;2023-03-01T14:57:29;16.77;;;13.50;;
78916;SDS011;68315;48.608;11.436;2023-03-01T14:59:55;18.30;;;13.60;;
78916;SDS011;68315;48.608;11.436;2023-03-01T15:02:25;17.00;;;13.95;;
78916;SDS011;68315;48.608;11.436;2023-03-01T15:04:55;17.30;;;14.63;;
78916;SDS011;68315;48.608;11.436;2023-03-01T15:07:22;17.50;;;13.55;;
78916;SDS011;68315;48.608;11.436;2023-03-01T15:09:53;17.42;;;13.32;;
78916;SDS011;68315;48.608;11.436;2023-03-01T15:14:53;18.65;;;13.73;;
78916;SDS011;68315;48.608;11.436;2023-03-01T15:17:35;16.05;;;12.88;;
78916;SDS011;68315;48.608;11.436;2023-03-01T15:20:04;16.98;;;13.85;;
78916;SDS011;68315;48.608;11.436;2023-03-01T15:22:32;16.33;;;12.85;;
78916;SDS011;68315;48.608;11.436;2023-03-01T15:24:58;17.58;;;13.68;;
78916;SDS011;68315;48.608;11.436;2023-03-01T15:27:23;17.33;;;13.95;;
78916;SDS011;68315;48.608;11.436;2023-03-01T15:29:54;19.50;;;14.07;;
78916;SDS011;68315;48.608;11.436;2023-03-01T15:32:27;17.30;;;14.18;;
78916;SDS011;68315;48.608;11.436;2023-03-01T15:34:54;19.13;;;14.80;;
78916;SDS011;68315;48.608;11.436;2023-03-01T15:40:26;17.73;;;13.23;;
78916;SDS011;68315;48.608;11.436;2023-03-01T15:43:04;19.30;;;14.65;;
78916;SDS011;68315;48.608;11.436;2023-03-01T15:45:31;21.80;;;15.23;;
78916;SDS011;68315;48.608;11.436;2023-03-01T15:48:03;17.02;;;13.52;;
78916;SDS011;68315;48.608;11.436;2023-03-01T15:50:31;17.58;;;14.52;;
78916;SDS011;68315;48.608;11.436;2023-03-01T15:52:58;18.65;;;14.45;;
78916;SDS011;68315;48.608;11.436;2023-03-01T15:55:26;19.73;;;14.93;;
78916;SDS011;68315;48.608;11.436;2023-03-01T15:58:38;18.67;;;14.75;;
78916;SDS011;68315;48.608;11.436;2023-03-01T16:00:48;20.38;;;15.60;;
78916;SDS011;68315;48.608;11.436;2023-03-01T16:03:21;21.90;;;16.63;;
78916;SDS011;68315;48.608;11.436;2023-03-01T16:05:48;22.08;;;16.80;;
78916;SDS011;68315;48.608;11.436;2023-03-01T16:08:14;22.67;;;16.83;;
78916;SDS011;68315;48.608;11.436;2023-03-01T16:10:40;19.33;;;16.30;;
78916;SDS011;68315;48.608;11.436;2023-03-01T16:13:06;22.02;;;17.13;;
78916;SDS011;68315;48.608;11.436;2023-03-01T16:15:32;23.08;;;17.85;;
78916;SDS011;68315;48.608;11.436;2023-03-01T16:18:00;22.95;;;17.90;;
78916;SDS011;68315;48.608;11.436;2023-03-01T16:20:26;24.05;;;17.58;;
78916;SDS011;68315;48.608;11.436;2023-03-01T16:22:51;21.63;;;17.17;;
78916;SDS011;68315;48.608;11.436;2023-03-01T16:25:18;23.05;;;17.23;;
78916;SDS011;68315;48.608;11.436;2023-03-01T16:27:45;22.92;;;17.33;;
78916;SDS011;68315;48.608;11.436;2023-03-01T16:30:12;22.98;;;17.58;;
78916;SDS011;68315;48.608;11.436;2023-03-01T16:32:39;23.23;;;17.45;;
78916;SDS011;68315;48.608;11.436;2023-03-01T16:35:09;22.42;;;17.35;;
78916;SDS011;68315;48.608;11.436;2023-03-01T16:37:36;22.52;;;17.10;;
78916;SDS011;68315;48.608;11.436;2023-03-01T16:40:03;23.58;;;16.80;;
78916;SDS011;68315;48.608;11.436;2023-03-01T16:42:33;21.42;;;16.80;;
78916;SDS011;68315;48.608;11.436;2023-03-01T16:45:00;22.95;;;16.70;;
78916;SDS011;68315;48.608;11.436;2023-03-01T16:47:26;21.10;;;16.85;;
78916;SDS011;68315;48.608;11.436;2023-03-01T16:49:52;22.15;;;17.02;;
78916;SDS011;68315;48.608;11.436;2023-03-01T16:52:18;21.80;;;16.30;;
78916;SDS011;68315;48.608;11.436;2023-03-01T16:54:46;20.98;;;17.52;;
78916;SDS011;68315;48.608;11.436;2023-03-01T16:57:12;21.27;;;16.73;;
78916;SDS011;68315;48.608;11.436;2023-03-01T16:59:37;21.77;;;16.48;;
78916;SDS011;68315;48.608;11.436;2023-03-01T17:02:05;22.73;;;17.33;;
78916;SDS011;68315;48.608;11.436;2023-03-01T17:04:35;21.83;;;16.60;;
78916;SDS011;68315;48.608;11.436;2023-03-01T17:07:00;21.27;;;16.55;;
78916;SDS011;68315;48.608;11.436;2023-03-01T17:09:26;22.55;;;16.17;;
78916;SDS011;68315;48.608;11.436;2023-03-01T17:11:51;22.90;;;16.73;;
78916;SDS011;68315;48.608;11.436;2023-03-01T17:14:16;25.08;;;16.50;;
78916;SDS011;68315;48.608;11.436;2023-03-01T17:16:44;21.25;;;15.57;;
78916;SDS011;68315;48.608;11.436;2023-03-01T17:19:10;20.92;;;16.30;;
78916;SDS011;68315;48.608;11.436;2023-03-01T17:21:35;21.75;;;15.73;;
78916;SDS011;68315;48.608;11.436;2023-03-01T17:24:01;21.55;;;16.05;;
78916;SDS011;68315;48.608;11.436;2023-03-01T17:26:28;21.67;;;16.80;;
78916;SDS011;68315;48.608;11.436;2023-03-01T17:28:54;24.40;;;16.48;;
78916;SDS011;68315;48.608;11.436;2023-03-01T17:31:20;21.63;;;16.30;;
78916;SDS011;68315;48.608;11.436;2023-03-01T17:33:47;23.35;;;16.50;;
78916;SDS011;68315;48.608;11.436;2023-03-01T17:36:13;22.27;;;16.30;;
78916;SDS011;68315;48.608;11.436;2023-03-01T17:38:39;24.88;;;17.45;;
78916;SDS011;68315;48.608;11.436;2023-03-01T17:41:04;21.85;;;16.67;;
78916;SDS011;68315;48.608;11.436;2023-03-01T17:43:29;23.27;;;17.23;;
78916;SDS011;68315;48.608;11.436;2023-03-01T17:45:56;23.38;;;17.50;;
78916;SDS011;68315;48.608;11.436;2023-03-01T17:48:23;23.52;;;16.60;;
78916;SDS011;68315;48.608;11.436;2023-03-01T17:50:49;22.10;;;16.58;;
78916;SDS011;68315;48.608;11.436;2023-03-01T17:53:17;24.08;;;17.80;;
78916;SDS011;68315;48.608;11.436;2023-03-01T17:55:43;23.63;;;17.00;;
78916;SDS011;68315;48.608;11.436;2023-03-01T17:58:09;23.55;;;16.70;;
78916;SDS011;68315;48.608;11.436;2023-03-01T18:00:39;24.63;;;16.83;;
78916;SDS011;68315;48.608;11.436;2023-03-01T18:03:05;21.27;;;17.38;;
78916;SDS011;68315;48.608;11.436;2023-03-01T18:05:31;27.48;;;17.77;;
78916;SDS011;68315;48.608;11.436;2023-03-01T18:07:57;26.60;;;17.67;;
78916;SDS011;68315;48.608;11.436;2023-03-01T18:10:23;27.23;;;17.55;;
78916;SDS011;68315;48.608;11.436;2023-03-01T18:12:48;24.05;;;17.58;;
78916;SDS011;68315;48.608;11.436;2023-03-01T18:15:14;27.20;;;18.63;;
78916;SDS011;68315;48.608;11.436;2023-03-01T18:17:40;23.40;;;16.92;;
78916;SDS011;68315;48.608;11.436;2023-03-01T18:20:06;25.33;;;18.05;;
78916;SDS011;68315;48.608;11.436;2023-03-01T18:22:32;24.08;;;17.65;;
78916;SDS011;68315;48.608;11.436;2023-03-01T18:24:57;23.23;;;18.25;;
78916;SDS011;68315;48.608;11.436;2023-03-01T18:27:23;24.50;;;16.85;;
78916;SDS011;68315;48.608;11.436;2023-03-01T18:29:50;26.27;;;18.27;;
78916;SDS011;68315;48.608;11.436;2023-03-01T18:32:15;22.02;;;16.42;;
78916;SDS011;68315;48.608;11.436;2023-03-01T18:34:41;25.08;;;18.15;;
78916;SDS011;68315;48.608;11.436;2023-03-01T18:37:06;24.40;;;16.63;;
78916;SDS011;68315;48.608;11.436;2023-03-01T18:39:31;23.77;;;17.13;;
78916;SDS011;68315;48.608;11.436;2023-03-01T18:41:57;26.83;;;17.85;;
78916;SDS011;68315;48.608;11.436;2023-03-01T18:44:22;23.60;;;17.48;;
78916;SDS011;68315;48.608;11.436;2023-03-01T18:46:47;26.50;;;17.92;;
78916;SDS011;68315;48.608;11.436;2023-03-01T18:49:13;24.48;;;17.45;;
78916;SDS011;68315;48.608;11.436;2023-03-01T18:51:39;24.58;;;17.42;;
78916;SDS011;68315;48.608;11.436;2023-03-01T18:54:06;25.85;;;18.13;;
78916;SDS011;68315;48.608;11.436;2023-03-01T18:56:34;22.80;;;17.58;;
78916;SDS011;68315;48.608;11.436;2023-03-01T18:59:00;24.75;;;17.75;;
78916;SDS011;68315;48.608;11.436;2023-03-01T19:01:27;25.05;;;17.67;;
78916;SDS011;68315;48.608;11.436;2023-03-01T19:03:53;24.17;;;17.52;;
78916;SDS011;68315;48.608;11.436;2023-03-01T19:06:20;23.92;;;17.48;;
78916;SDS011;68315;48.608;11.436;2023-03-01T19:08:46;23.55;;;16.80;;
78916;SDS011;68315;48.608;11.436;2023-03-01T19:11:12;24.00;;;18.05;;
78916;SDS011;68315;48.608;11.436;2023-03-01T19:13:41;21.65;;;16.92;;
78916;SDS011;68315;48.608;11.436;2023-03-01T19:16:08;26.27;;;18.45;;
78916;SDS011;68315;48.608;11.436;2023-03-01T19:18:37;23.02;;;17.48;;
78916;SDS011;68315;48.608;11.436;2023-03-01T19:21:05;25.65;;;17.88;;
78916;SDS011;68315;48.608;11.436;2023-03-01T19:23:31;24.83;;;18.00;;
78916;SDS011;68315;48.608;11.436;2023-03-01T19:26:01;22.05;;;16.63;;
78916;SDS011;68315;48.608;11.436;2023-03-01T19:28:27;24.88;;;17.13;;
78916;SDS011;68315;48.608;11.436;2023-03-01T19:30:56;25.40;;;17.65;;
78916;SDS011;68315;48.608;11.436;2023-03-01T19:33:24;23.52;;;16.85;;
78916;SDS011;68315;48.608;11.436;2023-03-01T19:35:49;24.85;;;16.67;;
78916;SDS011;68315;48.608;11.436;2023-03-01T19:38:15;25.88;;;17.23;;
78916;SDS011;68315;48.608;11.436;2023-03-01T19:40:40;23.65;;;17.88;;
78916;SDS011;68315;48.608;11.436;2023-03-01T19:43:05;27.48;;;18.13;;
78916;SDS011;68315;48.608;11.436;2023-03-01T19:45:31;22.05;;;17.27;;
78916;SDS011;68315;48.608;11.436;2023-03-01T19:47:56;24.05;;;17.20;;
78916;SDS011;68315;48.608;11.436;2023-03-01T19:50:21;25.33;;;17.35;;
78916;SDS011;68315;48.608;11.436;2023-03-01T19:52:47;26.50;;;18.08;;
78916;SDS011;68315;48.608;11.436;2023-03-01T19:55:12;25.60;;;17.55;;
78916;SDS011;68315;48.608;11.436;2023-03-01T19:57:38;22.85;;;17.75;;
78916;SDS011;68315;48.608;11.436;2023-03-01T20:00:04;25.08;;;18.23;;
78916;SDS011;68315;48.608;11.436;2023-03-01T20:02:30;23.05;;;16.63;;
78916;SDS011;68315;48.608;11.436;2023-03-01T20:04:55;28.73;;;19.27;;
78916;SDS011;68315;48.608;11.436;2023-03-01T20:07:21;24.80;;;17.98;;
78916;SDS011;68315;48.608;11.436;2023-03-01T20:09:46;27.48;;;18.60;;
78916;SDS011;68315;48.608;11.436;2023-03-01T20:12:11;24.95;;;18.42;;
78916;SDS011;68315;48.608;11.436;2023-03-01T20:14:37;23.02;;;17.00;;
78916;SDS011;68315;48.608;11.436;2023-03-01T20:17:02;24.65;;;17.63;;
78916;SDS011;68315;48.608;11.436;2023-03-01T20:19:28;22.73;;;16.20;;
78916;SDS011;68315;48.608;11.436;2023-03-01T20:21:53;23.83;;;17.73;;
78916;SDS011;68315;48.608;11.436;2023-03-01T20:24:18;26.30;;;18.40;;
78916;SDS011;68315;48.608;11.436;2023-03-01T20:26:43;25.25;;;17.20;;
78916;SDS011;68315;48.608;11.436;2023-03-01T20:29:09;22.60;;;16.60;;
78916;SDS011;68315;48.608;11.436;2023-03-01T20:31:34;24.10;;;17.98;;
78916;SDS011;68315;48.608;11.436;2023-03-01T20:33:59;26.50;;;18.58;;
78916;SDS011;68315;48.608;11.436;2023-03-01T20:36:25;26.02;;;17.73;;
78916;SDS011;68315;48.608;11.436;2023-03-01T20:38:52;24.13;;;17.48;;
78916;SDS011;68315;48.608;11.436;2023-03-01T20:41:18;24.35;;;17.23;;
78916;SDS011;68315;48.608;11.436;2023-03-01T20:43:44;23.10;;;16.65;;
78916;SDS011;68315;48.608;11.436;2023-03-01T20:46:19;23.67;;;16.45;;
78916;SDS011;68315;48.608;11.436;2023-03-01T20:48:44;27.80;;;18.23;;
78916;SDS011;68315;48.608;11.436;2023-03-01T20:51:10;23.45;;;16.75;;
78916;SDS011;68315;48.608;11.436;2023-03-01T20:53:37;23.25;;;16.67;;
78916;SDS011;68315;48.608;11.436;2023-03-01T20:56:06;24.10;;;17.45;;
78916;SDS011;68315;48.608;11.436;2023-03-01T20:58:34;21.13;;;16.67;;
78916;SDS011;68315;48.608;11.436;2023-03-01T21:01:00;24.35;;;16.95;;
78916;SDS011;68315;48.608;11.436;2023-03-01T21:03:27;24.40;;;17.38;;
78916;SDS011;68315;48.608;11.436;2023-03-01T21:05:55;24.77;;;17.65;;
78916;SDS011;68315;48.608;11.436;2023-03-01T21:08:21;24.50;;;17.15;;
78916;SDS011;68315;48.608;11.436;2023-03-01T21:10:50;25.45;;;17.77;;
78916;SDS011;68315;48.608;11.436;2023-03-01T21:13:16;24.00;;;16.55;;
78916;SDS011;68315;48.608;11.436;2023-03-01T21:15:42;22.15;;;16.60;;
78916;SDS011;68315;48.608;11.436;2023-03-01T21:18:07;22.10;;;16.10;;
78916;SDS011;68315;48.608;11.436;2023-03-01T21:20:32;22.63;;;16.75;;
78916;SDS011;68315;48.608;11.436;2023-03-01T21:22:57;23.23;;;16.27;;
78916;SDS011;68315;48.608;11.436;2023-03-01T21:25:23;25.13;;;17.50;;
78916;SDS011;68315;48.608;11.436;2023-03-01T21:27:48;26.77;;;17.52;;
78916;SDS011;68315;48.608;11.436;2023-03-01T21:30:13;24.90;;;17.48;;
78916;SDS011;68315;48.608;11.436;2023-03-01T21:32:39;23.58;;;16.75;;
78916;SDS011;68315;48.608;11.436;2023-03-01T21:35:04;24.58;;;16.90;;
78916;SDS011;68315;48.608;11.436;2023-03-01T21:37:30;23.92;;;16.95;;
78916;SDS011;68315;48.608;11.436;2023-03-01T21:39:55;23.95;;;16.52;;
78916;SDS011;68315;48.608;11.436;2023-03-01T21:42:21;23.83;;;16.98;;
78916;SDS011;68315;48.608;11.436;2023-03-01T21:44:46;24.02;;;16.55;;
78916;SDS011;68315;48.608;11.436;2023-03-01T21:47:11;24.60;;;16.65;;
78916;SDS011;68315;48.608;11.436;2023-03-01T21:49:37;20.35;;;15.68;;
78916;SDS011;68315;48.608;11.436;2023-03-01T21:52:02;22.98;;;16.58;;
78916;SDS011;68315;48.608;11.436;2023-03-01T21:54:28;21.25;;;15.52;;
78916;SDS011;68315;48.608;11.436;2023-03-01T21:56:54;25.25;;;16.25;;
78916;SDS011;68315;48.608;11.436;2023-03-01T21:59:20;23.15;;;16.08;;
78916;SDS011;68315;48.608;11.436;2023-03-01T22:01:46;23.60;;;16.50;;
78916;SDS011;68315;48.608;11.436;2023-03-01T22:04:14;20.02;;;14.77;;
78916;SDS011;68315;48.608;11.436;2023-03-01T22:06:41;24.27;;;16.02;;
78916;SDS011;68315;48.608;11.436;2023-03-01T22:09:13;22.10;;;15.60;;
78916;SDS011;68315;48.608;11.436;2023-03-01T22:11:47;22.30;;;14.95;;
78916;SDS011;68315;48.608;11.436;2023-03-01T22:14:14;22.33;;;15.52;;
78916;SDS011;68315;48.608;11.436;2023-03-01T22:16:42;20.17;;;14.85;;
78916;SDS011;68315;48.608;11.436;2023-03-01T22:19:09;22.13;;;15.98;;
78916;SDS011;68315;48.608;11.436;2023-03-01T22:21:39;21.15;;;14.73;;
78916;SDS011;68315;48.608;11.436;2023-03-01T22:24:05;21.95;;;16.08;;
78916;SDS011;68315;48.608;11.436;2023-03-01T22:26:33;21.35;;;14.93;;
78916;SDS011;68315;48.608;11.436;2023-03-01T22:29:02;25.98;;;15.65;;
78916;SDS011;68315;48.608;11.436;2023-03-01T22:31:29;21.05;;;15.88;;
78916;SDS011;68315;48.608;11.436;2023-03-01T22:33:55;21.25;;;15.45;;
78916;SDS011;68315;48.608;11.436;2023-03-01T22:36:22;22.00;;;15.82;;
78916;SDS011;68315;48.608;11.436;2023-03-01T22:38:47;23.55;;;14.93;;
78916;SDS011;68315;48.608;11.436;2023-03-01T22:41:13;22.73;;;15.77;;
78916;SDS011;68315;48.608;11.436;2023-03-01T22:43:38;22.38;;;15.35;;
78916;SDS011;68315;48.608;11.436;2023-03-01T22:46:15;20.92;;;15.45;;
78916;SDS011;68315;48.608;11.436;2023-03-01T22:48:41;20.52;;;14.77;;
78916;SDS011;68315;48.608;11.436;2023-03-01T22:51:07;20.80;;;14.95;;
78916;SDS011;68315;48.608;11.436;2023-03-01T22:53:38;20.80;;;15.38;;
78916;SDS011;68315;48.608;11.436;2023-03-01T22:56:13;21.92;;;14.77;;
78916;SDS011;68315;48.608;11.436;2023-03-01T22:58:43;22.83;;;15.10;;
78916;SDS011;68315;48.608;11.436;2023-03-01T23:01:18;20.00;;;14.65;;
78916;SDS011;68315;48.608;11.436;2023-03-01T23:03:45;22.00;;;14.48;;
78916;SDS011;68315;48.608;11.436;2023-03-01T23:06:11;19.88;;;14.00;;
78916;SDS011;68315;48.608;11.436;2023-03-01T23:08:37;21.63;;;14.32;;
78916;SDS011;68315;48.608;11.436;2023-03-01T23:11:03;20.58;;;14.15;;
78916;SDS011;68315;48.608;11.436;2023-03-01T23:13:34;20.27;;;14.57;;
78916;SDS011;68315;48.608;11.436;2023-03-01T23:15:59;19.55;;;13.98;;
78916;SDS011;68315;48.608;11.436;2023-03-01T23:18:24;21.25;;;13.73;;
78916;SDS011;68315;48.608;11.436;2023-03-01T23:20:49;20.27;;;14.88;;
78916;SDS011;68315;48.608;11.436;2023-03-01T23:23:15;18.77;;;13.20;;
78916;SDS011;68315;48.608;11.436;2023-03-01T23:25:40;20.67;;;13.73;;
78916;SDS011;68315;48.608;11.436;2023-03-01T23:28:06;21.02;;;13.90;;
78916;SDS011;68315;48.608;11.436;2023-03-01T23:30:31;20.20;;;14.65;;
78916;SDS011;68315;48.608;11.436;2023-03-01T23:32:56;20.42;;;13.93;;
78916;SDS011;68315;48.608;11.436;2023-03-01T23:35:24;18.67;;;13.93;;
78916;SDS011;68315;48.608;11.436;2023-03-01T23:37:51;19.40;;;13.88;;
78916;SDS011;68315;48.608;11.436;2023-03-01T23:40:17;22.27;;;14.27;;
78916;SDS011;68315;48.608;11.436;2023-03-01T23:42:44;20.42;;;13.50;;
78916;SDS011;68315;48.608;11.436;2023-03-01T23:45:10;21.48;;;14.68;;
78916;SDS011;68315;48.608;11.436;2023-03-01T23:47:35;17.23;;;13.70;;
78916;SDS011;68315;48.608;11.436;2023-03-01T23:50:01;19.77;;;14.43;;
78916;SDS011;68315;48.608;11.436;2023-03-01T23:52:26;22.40;;;14.02;;
78916;SDS011;68315;48.608;11.436;2023-03-01T23:54:51;21.30;;;14.95;;
78916;SDS011;68315;48.608;11.436;2023-03-01T23:57:17;21.20;;;14.18;;
78916;SDS011;68315;48.608;11.436;2023-03-01T23:59:43;22.63;;;14.10;;
